Terminal Aerodrome Forecast
Issued by NWS

Home | Current Version | Previous Version | Text Only | Print | Product List | Glossary On
Versions: 1 2 3 4 5 6 7 8 9 10 11 12 13 14 15 16 17
374
FTUS42 KMLB 201741 CCA
TAFSUA
TAF COR
KSUA 201741Z 2018/2118 12009KT 6SM -RA VCTS SCT015CB BKN150
     FM202100 10007KT P6SM VCSH SCT015 SCT100 OVC150
     FM210400 09005KT P6SM FEW015 SCT110 BKN150
     FM211500 10010KT P6SM SCT025
      AMD NOT SKED=

USA.gov is the U.S. government's official web portal to all federal, state and local government web resources and services.